createdAt,value
2019-04-29T00:00:10.000Z,100922.13
2019-04-29T00:02:42.809Z,100922.03
2019-04-29T00:05:15.344Z,100917.30
2019-04-29T00:07:46.711Z,100925.27
2019-04-29T00:10:21.980Z,100929.11
2019-04-29T00:12:55.792Z,100930.00
2019-04-29T00:15:28.686Z,100923.02
2019-04-29T00:18:01.527Z,100923.08
2019-04-29T00:20:34.517Z,100921.46
2019-04-29T00:23:05.903Z,100926.26
2019-04-29T00:25:37.297Z,100917.08
2019-04-29T00:28:09.522Z,100920.73
2019-04-29T00:30:41.099Z,100925.37
2019-04-29T00:33:15.780Z,100915.77
2019-04-29T00:35:47.357Z,100921.52
2019-04-29T00:38:20.537Z,100909.55
2019-04-29T00:40:53.414Z,100915.17
2019-04-29T00:43:26.074Z,100921.68
2019-04-29T00:45:57.418Z,100913.39
2019-04-29T00:48:28.991Z,100918.09
2019-04-29T00:51:00.432Z,100908.56
2019-04-29T00:53:32.637Z,100917.27
2019-04-29T00:56:04.783Z,100910.28
2019-04-29T00:58:36.495Z,100905.80
2019-04-29T01:01:12.929Z,100908.41
2019-04-29T01:03:44.065Z,100915.08
2019-04-29T01:06:15.554Z,100911.27
2019-04-29T01:08:46.848Z,100903.19
2019-04-29T01:11:18.272Z,100904.08
2019-04-29T01:13:50.370Z,100903.09
2019-04-29T01:16:21.817Z,100902.30
2019-04-29T01:18:52.812Z,100897.72
2019-04-29T01:21:25.216Z,100887.30
2019-04-29T01:23:56.359Z,100886.79
2019-04-29T01:26:29.408Z,100890.80
2019-04-29T01:29:02.742Z,100890.85
2019-04-29T01:31:35.246Z,100888.81
2019-04-29T01:34:08.332Z,100891.01
2019-04-29T01:36:41.155Z,100885.00
2019-04-29T01:39:14.533Z,100884.44
2019-04-29T01:41:47.896Z,100874.74
2019-04-29T03:07:16.234Z,100828.05
2019-04-29T03:09:48.287Z,100819.41
2019-04-29T03:12:19.454Z,100803.72
2019-04-29T03:14:50.762Z,100801.59
2019-04-29T03:17:22.475Z,100806.38
2019-04-29T03:19:55.196Z,100804.20
2019-04-29T03:22:27.086Z,100818.27
2019-04-29T03:24:58.516Z,100815.77
2019-04-29T03:27:29.828Z,100816.12
2019-04-29T03:30:01.383Z,100813.09
2019-04-29T03:32:32.829Z,100812.21
2019-04-29T03:35:04.618Z,100814.88
2019-04-29T03:37:36.524Z,100818.78
2019-04-29T03:40:08.429Z,100813.66
2019-04-29T03:42:39.749Z,100812.78
2019-04-29T03:45:11.063Z,100812.84
2019-04-29T03:47:42.875Z,100812.36
2019-04-29T03:50:14.594Z,100811.70
2019-04-29T03:52:46.326Z,100809.82
2019-04-29T03:55:18.178Z,100803.09
2019-04-29T03:57:49.487Z,100798.92
2019-04-29T04:00:21.256Z,100807.22
2019-04-29T04:02:54.324Z,100809.25
2019-04-29T04:05:27.589Z,100806.73
2019-04-29T04:08:00.850Z,100818.11
2019-04-29T04:10:32.655Z,100816.33
2019-04-29T04:13:03.862Z,100814.30
2019-04-29T04:15:35.540Z,100813.94
2019-04-29T04:18:08.872Z,100819.34
2019-04-29T04:20:40.134Z,100818.05
2019-04-29T04:23:12.888Z,100816.42
2019-04-29T04:25:43.942Z,100815.03
2019-04-29T04:28:15.210Z,100815.86
2019-04-29T04:30:46.650Z,100805.65
2019-04-29T04:33:18.539Z,100812.90
2019-04-29T04:35:50.268Z,100808.25
2019-04-29T04:38:21.974Z,100820.39
2019-04-29T04:40:54.918Z,100814.30
2019-04-29T04:43:26.914Z,100820.07
2019-04-29T04:45:58.611Z,100820.96
2019-04-29T04:48:31.520Z,100817.47
2019-04-29T04:51:03.117Z,100818.35
2019-04-29T04:53:34.772Z,100822.67
2019-04-29T04:56:07.615Z,100826.86
2019-04-29T04:58:40.568Z,100827.99
2019-04-29T05:01:11.905Z,100819.96
2019-04-29T05:03:43.922Z,100816.68
2019-04-29T05:06:15.409Z,100801.78
2019-04-29T05:08:47.377Z,100797.45
2019-04-29T05:11:18.977Z,100794.12
2019-04-29T05:13:52.147Z,100801.20
2019-04-29T05:16:23.580Z,100796.55
2019-04-29T05:18:55.584Z,100793.28
2019-04-29T05:21:26.846Z,100796.55
2019-04-29T05:23:58.227Z,100787.42
2019-04-29T05:26:31.425Z,100786.66
2019-04-29T05:29:02.774Z,100789.94
2019-04-29T05:31:35.033Z,100782.48
2019-04-29T05:34:06.623Z,100786.01
2019-04-29T05:36:39.527Z,100808.63
2019-04-29T05:39:12.972Z,100800.75
2019-04-29T05:41:43.972Z,100785.95
2019-04-29T05:44:20.988Z,100788.28
2019-04-29T05:46:55.872Z,100785.64
2019-04-29T05:49:29.424Z,100791.06
2019-04-29T05:52:03.235Z,100804.37
2019-04-29T05:54:35.902Z,100806.89
2019-04-29T05:57:07.101Z,100800.78
2019-04-29T05:59:39.019Z,100800.78
2019-04-29T06:02:10.440Z,100805.58
2019-04-29T06:04:41.829Z,100808.75
2019-04-29T06:07:16.913Z,100806.98
2019-04-29T06:09:47.116Z,100802.95
2019-04-29T06:12:18.982Z,100799.48
2019-04-29T06:14:50.455Z,100806.98
2019-04-29T06:17:22.032Z,100813.41
2019-04-29T06:19:53.011Z,100806.86
2019-04-29T06:22:24.160Z,100803.50
2019-04-29T06:24:54.771Z,100809.52
2019-04-29T06:27:25.768Z,100821.34
2019-04-29T06:29:58.595Z,100827.03
2019-04-29T06:32:28.858Z,100830.20
2019-04-29T06:34:59.866Z,100833.28
2019-04-29T06:37:30.791Z,100833.98
2019-04-29T06:40:02.029Z,100829.98
2019-04-29T06:42:33.571Z,100824.45
2019-04-29T06:45:07.229Z,100824.17
2019-04-29T06:47:38.101Z,100828.03
2019-04-29T06:50:10.172Z,100828.09
2019-04-29T06:52:41.144Z,100828.09
2019-04-29T06:55:12.833Z,100833.25
2019-04-29T06:57:43.616Z,100824.24
2019-04-29T07:00:17.577Z,100822.94
2019-04-29T07:02:49.872Z,100822.58
2019-04-29T07:05:20.169Z,100814.30
2019-04-29T07:07:50.810Z,100806.95
2019-04-29T07:10:26.718Z,100791.02
2019-04-29T07:12:54.297Z,100791.11
2019-04-29T07:15:25.160Z,100790.97
2019-04-29T07:17:56.184Z,100785.06
2019-04-29T07:20:28.204Z,100770.77
2019-04-29T07:23:00.676Z,100773.52
2019-04-29T07:25:32.179Z,100782.32
2019-04-29T07:28:02.762Z,100787.59
2019-04-29T07:30:39.182Z,100784.19
2019-04-29T07:33:07.109Z,100789.68
2019-04-29T07:35:38.484Z,100794.53
2019-04-29T07:38:13.533Z,100791.03
2019-04-29T07:40:44.670Z,100793.78
2019-04-29T07:43:15.559Z,100802.36
2019-04-29T07:45:48.159Z,100803.34
2019-04-29T07:48:19.971Z,100803.95
2019-04-29T07:50:50.908Z,100806.36
2019-04-29T07:53:34.489Z,100808.05
2019-04-29T07:55:54.226Z,100804.50
2019-04-29T07:58:27.315Z,100805.39
2019-04-29T08:00:58.836Z,100807.12
2019-04-29T08:03:30.731Z,100807.59
2019-04-29T08:06:02.130Z,100805.86
2019-04-29T08:08:34.422Z,100808.27
2019-04-29T08:11:06.242Z,100808.22
2019-04-29T08:13:39.576Z,100806.63
2019-04-29T08:16:12.740Z,100805.72
2019-04-29T08:18:43.647Z,100804.19
2019-04-29T08:21:16.023Z,100811.06
2019-04-29T08:23:47.968Z,100806.20
2019-04-29T08:26:18.908Z,100809.78
2019-04-29T08:28:52.917Z,100809.65
2019-04-29T08:31:23.304Z,100811.98
2019-04-29T08:33:54.765Z,100810.36
2019-04-29T08:36:27.142Z,100811.42
2019-04-29T08:39:08.437Z,100812.68
2019-04-29T08:41:31.332Z,100817.70
2019-04-29T08:44:15.898Z,100815.45
2019-04-29T08:46:37.668Z,100805.20
2019-04-29T08:49:11.427Z,100803.19
2019-04-29T08:51:41.212Z,100800.23
2019-04-29T08:54:16.007Z,100802.15
2019-04-29T08:57:01.834Z,100798.77
2019-04-29T08:59:20.649Z,100790.11
2019-04-29T09:01:51.133Z,100793.02
2019-04-29T09:04:23.600Z,100795.78
2019-04-29T09:06:54.486Z,100793.45
2019-04-29T09:09:29.007Z,100786.09
2019-04-29T09:11:58.597Z,100789.22
2019-04-29T09:14:29.760Z,100790.14
2019-04-29T09:17:01.239Z,100783.67
2019-04-29T09:19:39.507Z,100790.30
2019-04-29T09:22:12.958Z,100784.23
2019-04-29T09:24:48.187Z,100785.78
2019-04-29T09:27:20.788Z,100777.08
2019-04-29T09:29:54.191Z,100773.53
2019-04-29T09:32:24.179Z,100771.67
2019-04-29T09:34:55.555Z,100767.44
2019-04-29T09:37:27.510Z,100760.38
2019-04-29T09:39:58.267Z,100754.55
2019-04-29T09:42:35.004Z,100757.86
2019-04-29T09:45:14.715Z,100753.47
2019-04-29T09:47:43.514Z,100753.77
2019-04-29T09:50:14.274Z,100751.40
2019-04-29T09:52:45.473Z,100745.23
2019-04-29T09:55:17.211Z,100738.70
2019-04-29T09:57:48.255Z,100739.45
2019-04-29T10:00:22.654Z,100734.39
2019-04-29T10:02:55.487Z,100733.67
2019-04-29T10:05:28.135Z,100729.14
2019-04-29T10:08:00.196Z,100719.97
2019-04-29T10:10:32.118Z,100724.44
2019-04-29T10:13:02.850Z,100713.32
2019-04-29T10:15:35.610Z,100712.91
2019-04-29T10:18:07.910Z,100706.11
2019-04-29T10:20:40.310Z,100702.98
2019-04-29T10:23:11.208Z,100700.78
2019-04-29T10:25:42.300Z,100696.39
2019-04-29T10:28:13.322Z,100698.71
2019-04-29T10:30:44.791Z,100688.70
2019-04-29T10:33:17.528Z,100685.05
2019-04-29T10:35:48.308Z,100688.23
2019-04-29T10:38:19.127Z,100681.11
2019-04-29T10:40:56.646Z,100677.81
2019-04-29T10:43:29.605Z,100675.55
2019-04-29T10:46:02.315Z,100663.86
2019-04-29T10:48:36.258Z,100671.38
2019-04-29T10:51:09.224Z,100676.38
2019-04-29T10:53:41.039Z,100680.55
2019-04-29T10:56:12.361Z,100670.59
2019-04-29T10:58:44.674Z,100670.83
2019-04-29T11:01:20.067Z,100656.86
2019-04-29T11:03:50.854Z,100663.33
2019-04-29T11:06:21.735Z,100659.33
2019-04-29T11:08:54.207Z,100657.31
2019-04-29T11:11:27.344Z,100661.81
2019-04-29T11:14:01.506Z,100656.52
2019-04-29T11:16:46.107Z,100659.39
2019-04-29T11:19:05.588Z,100653.73
2019-04-29T11:21:39.000Z,100659.95
2019-04-29T11:24:11.252Z,100659.44
2019-04-29T11:26:44.786Z,100655.41
2019-04-29T11:29:15.909Z,100653.96
2019-04-29T11:31:48.983Z,100664.57
2019-04-29T11:34:20.944Z,100667.13
2019-04-29T11:36:52.013Z,100660.16
2019-04-29T11:39:24.808Z,100655.30
2019-04-29T11:41:59.670Z,100655.02
2019-04-29T11:44:31.869Z,100656.87
2019-04-29T11:47:02.986Z,100659.05
2019-04-29T11:49:35.727Z,100652.42
2019-04-29T11:52:09.826Z,100643.54
2019-04-29T11:54:40.268Z,100646.22
2019-04-29T11:57:12.986Z,100641.25
2019-04-29T11:59:47.369Z,100642.67
2019-04-29T12:02:23.449Z,100639.98
2019-04-29T12:04:57.305Z,100638.58
2019-04-29T12:07:32.780Z,100641.59
2019-04-29T12:10:06.618Z,100640.06
2019-04-29T12:12:37.626Z,100637.78
2019-04-29T12:15:13.770Z,100633.87
2019-04-29T12:17:46.250Z,100623.56
2019-04-29T12:20:20.288Z,100622.72
2019-04-29T12:22:52.968Z,100624.19
2019-04-29T12:25:27.406Z,100620.78
2019-04-29T12:28:01.675Z,100619.91
2019-04-29T12:30:34.734Z,100615.41
2019-04-29T12:33:08.421Z,100615.36
2019-04-29T12:35:51.725Z,100610.59
2019-04-29T12:38:18.290Z,100610.23
2019-04-29T12:40:55.072Z,100608.48
2019-04-29T12:43:26.291Z,100603.64
2019-04-29T12:45:59.223Z,100606.34
2019-04-29T12:48:30.761Z,100596.75
2019-04-29T12:51:02.949Z,100600.77
2019-04-29T12:53:39.496Z,100597.70
2019-04-29T12:56:12.795Z,100589.78
2019-04-29T12:58:50.374Z,100586.25
2019-04-29T13:01:20.815Z,100580.96
2019-04-29T13:03:55.392Z,100583.16
2019-04-29T13:06:38.824Z,100581.86
2019-04-29T13:09:16.969Z,100580.13
2019-04-29T13:11:48.338Z,100578.81
2019-04-29T13:14:13.398Z,100590.25
2019-04-29T13:16:46.334Z,100583.20
2019-04-29T13:19:20.898Z,100583.18
2019-04-29T13:21:53.796Z,100580.08
2019-04-29T13:24:26.295Z,100587.13
2019-04-29T13:26:58.591Z,100585.80
2019-04-29T13:29:32.081Z,100578.30
2019-04-29T13:32:03.760Z,100572.20
2019-04-29T13:34:37.731Z,100572.17
2019-04-29T13:37:18.223Z,100573.05
2019-04-29T13:39:45.272Z,100571.28
2019-04-29T13:42:20.888Z,100568.67
2019-04-29T13:45:06.131Z,100571.38
2019-04-29T13:47:30.658Z,100572.23
2019-04-29T13:50:16.919Z,100565.59
2019-04-29T13:52:35.931Z,100558.51
2019-04-29T13:55:18.021Z,100558.03
2019-04-29T13:57:51.201Z,100560.23
2019-04-29T14:00:26.369Z,100556.28
2019-04-29T14:03:15.054Z,100548.34
2019-04-29T14:06:03.867Z,100547.83
2019-04-29T14:08:28.762Z,100543.86
2019-04-29T14:11:00.806Z,100545.18
2019-04-29T14:13:33.054Z,100541.20
2019-04-29T14:16:07.684Z,100548.30
2019-04-29T14:18:38.668Z,100543.84
2019-04-29T14:21:12.044Z,100540.65
2019-04-29T14:23:45.065Z,100537.48
2019-04-29T14:26:17.461Z,100531.80
2019-04-29T14:28:49.913Z,100539.84
2019-04-29T14:31:22.708Z,100542.52
2019-04-29T14:34:00.318Z,100537.66
2019-04-29T14:36:31.521Z,100543.46
2019-04-29T14:39:03.470Z,100542.11
2019-04-29T14:41:38.232Z,100544.31
2019-04-29T14:44:15.182Z,100537.27
2019-04-29T14:46:48.746Z,100541.73
2019-04-29T14:49:23.047Z,100540.83
2019-04-29T14:51:58.448Z,100536.84
2019-04-29T14:54:31.476Z,100537.70
2019-04-29T14:57:04.126Z,100526.58
2019-04-29T14:59:35.661Z,100527.90
2019-04-29T15:02:16.252Z,100527.50
2019-04-29T15:04:44.218Z,100527.52
2019-04-29T15:07:15.658Z,100526.64
2019-04-29T15:09:51.328Z,100530.66
2019-04-29T15:12:28.246Z,100532.89
2019-04-29T15:15:02.412Z,100534.23
2019-04-29T15:17:40.463Z,100532.02
2019-04-29T15:20:12.170Z,100529.80
2019-04-29T15:22:43.392Z,100525.83
2019-04-29T15:25:16.771Z,100528.94
2019-04-29T15:27:49.273Z,100530.67
2019-04-29T15:30:21.302Z,100523.56
2019-04-29T15:32:57.471Z,100521.77
2019-04-29T15:35:27.184Z,100520.01
2019-04-29T15:37:58.464Z,100524.86
2019-04-29T15:40:30.214Z,100527.03
2019-04-29T15:43:01.937Z,100521.70
2019-04-29T15:45:34.279Z,100520.36
2019-04-29T15:48:06.672Z,100523.53
2019-04-29T15:50:39.119Z,100527.45
2019-04-29T15:53:10.894Z,100531.41
2019-04-29T15:55:42.766Z,100522.59
2019-04-29T15:58:14.655Z,100526.09
2019-04-29T16:00:46.384Z,100523.00
2019-04-29T16:03:19.689Z,100520.87
2019-04-29T16:06:11.213Z,100518.67
2019-04-29T16:08:29.558Z,100520.44
2019-04-29T16:11:02.801Z,100520.86
2019-04-29T16:13:34.952Z,100518.22
2019-04-29T16:16:06.841Z,100521.32
2019-04-29T16:18:38.583Z,100519.10
2019-04-29T16:21:10.113Z,100521.78
2019-04-29T16:23:41.677Z,100523.99
2019-04-29T16:26:12.902Z,100521.36
2019-04-29T16:28:44.920Z,100519.57
2019-04-29T16:31:16.652Z,100528.01
2019-04-29T16:33:54.638Z,100523.59
2019-04-29T16:36:22.222Z,100526.25
2019-04-29T16:38:53.594Z,100527.16
2019-04-29T16:41:26.844Z,100528.92
2019-04-29T16:43:58.471Z,100533.36
2019-04-29T16:46:37.343Z,100530.26
2019-04-29T16:49:05.165Z,100532.91
2019-04-29T16:51:36.914Z,100532.02
2019-04-29T16:54:12.872Z,100534.19
2019-04-29T16:56:41.617Z,100535.06
2019-04-29T16:59:14.266Z,100536.38
2019-04-29T17:01:46.902Z,100536.81
2019-04-29T17:04:18.479Z,100536.80
2019-04-29T17:07:11.317Z,100544.74
2019-04-29T17:09:24.772Z,100550.48
2019-04-29T17:11:58.392Z,100546.47
2019-04-29T17:14:30.566Z,100557.45
2019-04-29T17:17:02.459Z,100561.41
2019-04-29T17:19:35.584Z,100560.91
2019-04-29T17:22:24.845Z,100562.20
2019-04-29T17:24:41.678Z,100566.09
2019-04-29T17:27:14.954Z,100576.20
2019-04-29T17:29:49.578Z,100576.19
2019-04-29T17:32:24.300Z,100579.66
2019-04-29T17:34:59.660Z,100582.63
2019-04-29T17:37:32.178Z,100585.22
2019-04-29T17:40:06.960Z,100587.77
2019-04-29T17:42:39.797Z,100596.99
2019-04-29T17:45:26.956Z,100601.69
2019-04-29T17:47:49.138Z,100602.05
2019-04-29T17:50:30.150Z,100605.44
2019-04-29T17:52:56.972Z,100615.53
2019-04-29T17:55:38.634Z,100619.39
2019-04-29T17:58:19.755Z,100632.97
2019-04-29T18:01:05.281Z,100629.77
2019-04-29T18:03:52.732Z,100633.14
2019-04-29T18:06:38.927Z,100645.86
2019-04-29T18:09:17.257Z,100644.81
2019-04-29T18:12:05.206Z,100643.72
2019-04-29T18:14:51.020Z,100652.77
2019-04-29T18:17:28.898Z,100657.13
2019-04-29T18:19:58.158Z,100651.36
2019-04-29T18:22:31.867Z,100653.45
2019-04-29T18:25:05.047Z,100662.98
2019-04-29T18:27:38.325Z,100665.91
2019-04-29T18:30:12.348Z,100670.19
2019-04-29T18:32:46.659Z,100672.77
2019-04-29T18:35:17.181Z,100671.34
2019-04-29T18:37:50.758Z,100682.72
2019-04-29T18:40:21.164Z,100688.77
2019-04-29T18:42:52.693Z,100692.16
2019-04-29T18:45:25.401Z,100692.01
2019-04-29T18:47:56.972Z,100694.94
2019-04-29T18:50:33.569Z,100692.58
2019-04-29T18:53:02.534Z,100699.52
2019-04-29T18:55:35.345Z,100703.48
2019-04-29T18:58:06.719Z,100708.58
2019-04-29T19:00:39.366Z,100714.72
2019-04-29T19:03:11.319Z,100720.79
2019-04-29T19:05:47.814Z,100720.92
2019-04-29T19:08:23.122Z,100717.69
2019-04-29T19:10:52.367Z,100718.50
2019-04-29T19:13:26.059Z,100721.87
2019-04-29T19:16:09.111Z,100729.20
2019-04-29T19:18:30.637Z,100729.55
2019-04-29T19:21:02.549Z,100730.36
2019-04-29T19:23:35.903Z,100730.72
2019-04-29T19:26:09.937Z,100735.92
2019-04-29T19:28:45.167Z,100736.72
2019-04-29T19:31:15.952Z,100744.79
2019-04-29T19:33:47.351Z,100743.35
2019-04-29T19:36:21.805Z,100745.02
2019-04-29T19:38:52.211Z,100743.89
2019-04-29T19:41:23.268Z,100744.98
2019-04-29T19:43:57.471Z,100747.06
2019-04-29T19:46:36.706Z,100744.81
2019-04-29T19:49:07.523Z,100729.16
2019-04-29T19:51:39.357Z,100733.34
2019-04-29T19:54:10.461Z,100730.50
2019-04-29T19:56:42.479Z,100742.33
2019-04-29T19:59:16.989Z,100748.38
2019-04-29T20:01:51.105Z,100750.01
2019-04-29T20:04:22.960Z,100746.81
2019-04-29T20:07:06.049Z,100752.56
2019-04-29T20:09:32.131Z,100751.17
2019-04-29T20:12:11.408Z,100758.02
2019-04-29T20:14:37.227Z,100757.91
2019-04-29T20:17:13.960Z,100754.19
2019-04-29T20:19:45.627Z,100761.86
2019-04-29T20:22:15.968Z,100758.11
2019-04-29T20:24:49.525Z,100755.03
2019-04-29T20:27:20.551Z,100759.65
2019-04-29T20:29:50.146Z,100755.50
2019-04-29T20:32:22.492Z,100758.13
2019-04-29T20:34:58.999Z,100761.91
2019-04-29T20:37:27.115Z,100760.75
2019-04-29T20:40:00.619Z,100760.72
2019-04-29T20:42:29.520Z,100764.10
2019-04-29T20:45:00.426Z,100771.72
2019-04-29T20:47:38.025Z,100765.47
2019-04-29T20:50:08.972Z,100761.43
2019-04-29T20:52:38.695Z,100767.89
2019-04-29T20:55:10.375Z,100767.27
2019-04-29T20:57:42.197Z,100769.67
2019-04-29T21:00:14.718Z,100772.55
2019-04-29T21:02:48.912Z,100778.55
2019-04-29T21:05:24.477Z,100793.41
2019-04-29T21:08:03.134Z,100800.28
2019-04-29T21:10:28.705Z,100800.28
2019-04-29T21:13:01.655Z,100814.97
2019-04-29T21:15:36.198Z,100816.45
2019-04-29T21:18:10.431Z,100825.96
2019-04-29T21:20:42.202Z,100827.17
2019-04-29T21:23:13.598Z,100828.80
2019-04-29T21:25:45.761Z,100825.61
2019-04-29T21:28:17.711Z,100828.41
2019-04-29T21:30:49.550Z,100830.63
2019-04-29T21:33:21.611Z,100833.22
2019-04-29T21:35:57.929Z,100831.87
2019-04-29T21:38:29.584Z,100838.42
2019-04-29T21:41:02.804Z,100835.19
2019-04-29T21:43:35.863Z,100832.11
2019-04-29T21:46:07.443Z,100840.82
2019-04-29T21:48:39.022Z,100838.13
2019-04-29T21:51:12.452Z,100835.81
2019-04-29T21:53:45.921Z,100837.41
2019-04-29T21:56:18.474Z,100836.87
2019-04-29T21:58:49.816Z,100833.25
2019-04-29T22:01:21.635Z,100848.89
2019-04-29T22:03:51.913Z,100847.86
2019-04-29T22:06:24.826Z,100828.38
2019-04-29T22:09:01.060Z,100834.27
2019-04-29T22:11:27.921Z,100839.70
2019-04-29T22:13:59.525Z,100852.20
2019-04-29T22:16:35.629Z,100844.23
2019-04-29T22:19:05.783Z,100840.67
2019-04-29T22:21:36.174Z,100835.74
2019-04-29T22:24:06.461Z,100839.97
2019-04-29T22:26:37.030Z,100841.47
2019-04-29T22:29:07.571Z,100847.42
2019-04-29T22:31:38.418Z,100848.61
2019-04-29T22:34:09.825Z,100843.05
2019-04-29T22:36:40.874Z,100834.52
2019-04-29T22:39:11.117Z,100837.36
2019-04-29T22:41:43.788Z,100834.16
2019-04-29T22:44:21.755Z,100837.19
2019-04-29T22:46:47.701Z,100835.75
2019-04-29T22:49:24.461Z,100837.14
2019-04-29T22:51:54.548Z,100827.36
2019-04-29T22:54:23.475Z,100828.45
2019-04-29T22:56:56.623Z,100828.98
2019-04-29T22:59:27.601Z,100831.65
2019-04-29T23:01:58.287Z,100832.67
2019-04-29T23:04:28.994Z,100832.88
2019-04-29T23:06:59.939Z,100830.42
2019-04-29T23:09:30.945Z,100835.64
2019-04-29T23:12:01.479Z,100829.34
2019-04-29T23:14:32.871Z,100835.01
2019-04-29T23:17:12.314Z,100830.16
2019-04-29T23:19:46.479Z,100827.09
2019-04-29T23:22:22.139Z,100822.43
2019-04-29T23:24:53.191Z,100818.46
2019-04-29T23:27:25.971Z,100822.52
2019-04-29T23:29:57.556Z,100818.99
2019-04-29T23:32:29.641Z,100819.10
2019-04-29T23:35:05.544Z,100817.61
2019-04-29T23:37:33.320Z,100821.20
2019-04-29T23:40:05.882Z,100815.23
2019-04-29T23:42:36.618Z,100813.36
2019-04-29T23:45:07.256Z,100816.67
2019-04-29T23:47:41.791Z,100809.36
2019-04-29T23:50:13.955Z,100806.64
2019-04-29T23:52:47.888Z,100807.11
2019-04-29T23:55:20.448Z,100807.80
2019-04-29T23:57:54.955Z,100808.73
